sensor_id;sensor_type;location;lat;lon;timestamp;temperature;humidity
18624;DHT22;9441;51.420;7.036;2022-10-18T00:00:23;18.80;99.90
18624;DHT22;9441;51.420;7.036;2022-10-18T00:01:24;18.80;99.90
18624;DHT22;9441;51.420;7.036;2022-10-18T00:02:26;18.80;99.90
18624;DHT22;9441;51.420;7.036;2022-10-18T00:03:28;18.90;99.90
18624;DHT22;9441;51.420;7.036;2022-10-18T00:04:30;18.90;99.90
18624;DHT22;9441;51.420;7.036;2022-10-18T00:05:33;18.90;99.90
18624;DHT22;9441;51.420;7.036;2022-10-18T00:06:35;18.90;99.90
18624;DHT22;9441;51.420;7.036;2022-10-18T00:07:36;18.90;99.90
18624;DHT22;9441;51.420;7.036;2022-10-18T00:08:38;18.90;99.90
18624;DHT22;9441;51.420;7.036;2022-10-18T00:09:39;18.90;99.90
18624;DHT22;9441;51.420;7.036;2022-10-18T00:10:41;18.90;99.90
18624;DHT22;9441;51.420;7.036;2022-10-18T00:11:42;18.90;99.90
18624;DHT22;9441;51.420;7.036;2022-10-18T00:12:45;18.90;99.90
18624;DHT22;9441;51.420;7.036;2022-10-18T00:13:46;18.90;99.90
18624;DHT22;9441;51.420;7.036;2022-10-18T00:14:48;18.90;99.90
18624;DHT22;9441;51.420;7.036;2022-10-18T00:15:51;18.90;99.90
18624;DHT22;9441;51.420;7.036;2022-10-18T00:16:53;18.90;99.90
18624;DHT22;9441;51.420;7.036;2022-10-18T00:17:54;18.90;99.90
18624;DHT22;9441;51.420;7.036;2022-10-18T00:18:56;18.90;99.90
18624;DHT22;9441;51.420;7.036;2022-10-18T00:19:57;18.90;99.90
18624;DHT22;9441;51.420;7.036;2022-10-18T00:21:02;18.90;99.90
18624;DHT22;9441;51.420;7.036;2022-10-18T00:22:03;18.90;99.90
18624;DHT22;9441;51.420;7.036;2022-10-18T00:23:05;18.90;99.90
18624;DHT22;9441;51.420;7.036;2022-10-18T00:24:06;18.90;99.90
18624;DHT22;9441;51.420;7.036;2022-10-18T00:25:09;19.00;99.90
18624;DHT22;9441;51.420;7.036;2022-10-18T00:26:12;19.00;99.90
18624;DHT22;9441;51.420;7.036;2022-10-18T00:27:14;18.90;99.90
18624;DHT22;9441;51.420;7.036;2022-10-18T00:28:15;18.90;99.90
18624;DHT22;9441;51.420;7.036;2022-10-18T00:29:17;18.90;99.90
18624;DHT22;9441;51.420;7.036;2022-10-18T00:30:18;18.90;99.90
18624;DHT22;9441;51.420;7.036;2022-10-18T00:31:22;18.80;99.90
18624;DHT22;9441;51.420;7.036;2022-10-18T00:32:23;18.80;99.90
18624;DHT22;9441;51.420;7.036;2022-10-18T00:33:26;18.90;99.90
18624;DHT22;9441;51.420;7.036;2022-10-18T00:34:27;18.90;99.90
18624;DHT22;9441;51.420;7.036;2022-10-18T00:35:29;19.00;99.90
18624;DHT22;9441;51.420;7.036;2022-10-18T00:36:32;19.00;99.90
18624;DHT22;9441;51.420;7.036;2022-10-18T00:37:34;18.90;99.90
18624;DHT22;9441;51.420;7.036;2022-10-18T00:38:36;18.90;99.90
18624;DHT22;9441;51.420;7.036;2022-10-18T00:39:39;18.90;99.90
18624;DHT22;9441;51.420;7.036;2022-10-18T00:40:40;18.90;99.90
18624;DHT22;9441;51.420;7.036;2022-10-18T00:41:42;18.90;99.90
18624;DHT22;9441;51.420;7.036;2022-10-18T00:42:43;18.90;99.90
18624;DHT22;9441;51.420;7.036;2022-10-18T00:43:53;18.90;99.90
18624;DHT22;9441;51.420;7.036;2022-10-18T00:45:13;18.90;99.90
18624;DHT22;9441;51.420;7.036;2022-10-18T00:46:16;19.00;99.90
18624;DHT22;9441;51.420;7.036;2022-10-18T00:47:18;19.00;99.90
18624;DHT22;9441;51.420;7.036;2022-10-18T00:48:21;19.00;99.90
18624;DHT22;9441;51.420;7.036;2022-10-18T00:49:25;19.00;99.90
18624;DHT22;9441;51.420;7.036;2022-10-18T00:50:31;19.00;99.90
18624;DHT22;9441;51.420;7.036;2022-10-18T00:51:38;19.00;99.90
18624;DHT22;9441;51.420;7.036;2022-10-18T00:52:44;19.10;99.90
18624;DHT22;9441;51.420;7.036;2022-10-18T00:53:47;19.00;99.90
18624;DHT22;9441;51.420;7.036;2022-10-18T00:54:50;19.00;99.90
18624;DHT22;9441;51.420;7.036;2022-10-18T00:55:51;19.00;99.90
18624;DHT22;9441;51.420;7.036;2022-10-18T00:56:54;18.90;99.90
18624;DHT22;9441;51.420;7.036;2022-10-18T00:57:55;18.90;99.90
18624;DHT22;9441;51.420;7.036;2022-10-18T00:58:58;18.90;99.90
18624;DHT22;9441;51.420;7.036;2022-10-18T00:59:59;19.00;99.90
18624;DHT22;9441;51.420;7.036;2022-10-18T01:01:01;18.90;99.90
18624;DHT22;9441;51.420;7.036;2022-10-18T01:02:03;18.90;99.90
18624;DHT22;9441;51.420;7.036;2022-10-18T01:03:06;19.00;99.90
18624;DHT22;9441;51.420;7.036;2022-10-18T01:04:07;18.90;99.90
18624;DHT22;9441;51.420;7.036;2022-10-18T01:05:11;18.90;99.90
18624;DHT22;9441;51.420;7.036;2022-10-18T01:06:12;18.90;99.90
18624;DHT22;9441;51.420;7.036;2022-10-18T01:07:27;18.90;99.90
18624;DHT22;9441;51.420;7.036;2022-10-18T01:08:47;18.90;99.90
18624;DHT22;9441;51.420;7.036;2022-10-18T01:09:59;18.90;99.90
18624;DHT22;9441;51.420;7.036;2022-10-18T01:11:11;18.90;99.90
18624;DHT22;9441;51.420;7.036;2022-10-18T01:12:20;18.90;99.90
18624;DHT22;9441;51.420;7.036;2022-10-18T01:13:36;19.00;99.90
18624;DHT22;9441;51.420;7.036;2022-10-18T01:14:44;18.90;99.90
18624;DHT22;9441;51.420;7.036;2022-10-18T01:15:53;18.90;99.90
18624;DHT22;9441;51.420;7.036;2022-10-18T01:16:59;18.90;99.90
18624;DHT22;9441;51.420;7.036;2022-10-18T01:18:13;19.00;99.90
18624;DHT22;9441;51.420;7.036;2022-10-18T01:19:37;19.00;99.90
18624;DHT22;9441;51.420;7.036;2022-10-18T01:22:22;18.90;99.90
18624;DHT22;9441;51.420;7.036;2022-10-18T01:23:35;18.90;99.90
18624;DHT22;9441;51.420;7.036;2022-10-18T01:24:49;19.00;99.90
18624;DHT22;9441;51.420;7.036;2022-10-18T01:26:01;18.90;99.90
18624;DHT22;9441;51.420;7.036;2022-10-18T01:28:48;19.00;99.90
18624;DHT22;9441;51.420;7.036;2022-10-18T01:31:15;19.00;99.90
18624;DHT22;9441;51.420;7.036;2022-10-18T01:32:23;19.00;99.90
18624;DHT22;9441;51.420;7.036;2022-10-18T01:33:32;19.00;99.90
18624;DHT22;9441;51.420;7.036;2022-10-18T01:34:37;19.00;99.90
18624;DHT22;9441;51.420;7.036;2022-10-18T01:35:43;19.00;99.90
18624;DHT22;9441;51.420;7.036;2022-10-18T01:36:50;19.00;99.90
18624;DHT22;9441;51.420;7.036;2022-10-18T01:37:56;19.00;99.90
18624;DHT22;9441;51.420;7.036;2022-10-18T01:39:01;19.00;99.90
18624;DHT22;9441;51.420;7.036;2022-10-18T01:40:07;19.10;99.90
18624;DHT22;9441;51.420;7.036;2022-10-18T01:41:09;19.00;99.90
18624;DHT22;9441;51.420;7.036;2022-10-18T01:42:16;19.00;99.90
18624;DHT22;9441;51.420;7.036;2022-10-18T01:43:20;19.00;99.90
18624;DHT22;9441;51.420;7.036;2022-10-18T01:44:26;19.00;99.90
18624;DHT22;9441;51.420;7.036;2022-10-18T01:45:30;19.00;99.90
18624;DHT22;9441;51.420;7.036;2022-10-18T01:46:34;19.00;99.90
18624;DHT22;9441;51.420;7.036;2022-10-18T01:47:38;19.10;99.90
18624;DHT22;9441;51.420;7.036;2022-10-18T01:48:39;19.00;99.90
18624;DHT22;9441;51.420;7.036;2022-10-18T01:49:42;19.00;99.90
18624;DHT22;9441;51.420;7.036;2022-10-18T01:50:43;19.00;99.90
18624;DHT22;9441;51.420;7.036;2022-10-18T01:51:45;19.00;99.90
18624;DHT22;9441;51.420;7.036;2022-10-18T01:52:47;19.00;99.90
18624;DHT22;9441;51.420;7.036;2022-10-18T01:53:49;19.00;99.90
18624;DHT22;9441;51.420;7.036;2022-10-18T01:54:51;19.00;99.90
18624;DHT22;9441;51.420;7.036;2022-10-18T01:57:24;19.00;99.90
18624;DHT22;9441;51.420;7.036;2022-10-18T01:58:34;19.00;99.90
18624;DHT22;9441;51.420;7.036;2022-10-18T01:59:44;19.00;99.90
18624;DHT22;9441;51.420;7.036;2022-10-18T02:00:51;19.00;99.90
18624;DHT22;9441;51.420;7.036;2022-10-18T02:02:05;19.00;99.90
18624;DHT22;9441;51.420;7.036;2022-10-18T02:03:13;19.00;99.90
18624;DHT22;9441;51.420;7.036;2022-10-18T02:04:22;18.90;99.90
18624;DHT22;9441;51.420;7.036;2022-10-18T02:05:31;18.90;99.90
18624;DHT22;9441;51.420;7.036;2022-10-18T02:06:37;18.90;99.90
18624;DHT22;9441;51.420;7.036;2022-10-18T02:07:47;19.00;99.90
18624;DHT22;9441;51.420;7.036;2022-10-18T02:08:54;19.00;99.90
18624;DHT22;9441;51.420;7.036;2022-10-18T02:10:04;19.00;99.90
18624;DHT22;9441;51.420;7.036;2022-10-18T02:11:12;19.00;99.90
18624;DHT22;9441;51.420;7.036;2022-10-18T02:12:14;19.00;99.90
18624;DHT22;9441;51.420;7.036;2022-10-18T02:13:19;19.00;99.90
18624;DHT22;9441;51.420;7.036;2022-10-18T02:14:22;19.00;99.90
18624;DHT22;9441;51.420;7.036;2022-10-18T02:15:29;19.10;99.90
18624;DHT22;9441;51.420;7.036;2022-10-18T02:16:34;19.10;99.90
18624;DHT22;9441;51.420;7.036;2022-10-18T02:17:39;19.10;99.90
18624;DHT22;9441;51.420;7.036;2022-10-18T02:18:45;19.00;99.90
18624;DHT22;9441;51.420;7.036;2022-10-18T02:19:50;19.10;99.90
18624;DHT22;9441;51.420;7.036;2022-10-18T02:20:54;19.10;99.90
18624;DHT22;9441;51.420;7.036;2022-10-18T02:21:56;19.10;99.90
18624;DHT22;9441;51.420;7.036;2022-10-18T02:23:00;19.10;99.90
18624;DHT22;9441;51.420;7.036;2022-10-18T02:24:04;19.10;99.90
18624;DHT22;9441;51.420;7.036;2022-10-18T02:25:12;19.10;99.90
18624;DHT22;9441;51.420;7.036;2022-10-18T02:26:15;19.10;99.90
18624;DHT22;9441;51.420;7.036;2022-10-18T02:27:17;19.10;99.90
18624;DHT22;9441;51.420;7.036;2022-10-18T02:28:19;19.10;99.90
18624;DHT22;9441;51.420;7.036;2022-10-18T02:29:22;19.10;99.90
18624;DHT22;9441;51.420;7.036;2022-10-18T02:30:27;19.10;99.90
18624;DHT22;9441;51.420;7.036;2022-10-18T02:31:31;19.10;99.90
18624;DHT22;9441;51.420;7.036;2022-10-18T02:32:40;19.10;99.90
18624;DHT22;9441;51.420;7.036;2022-10-18T02:33:45;19.10;99.90
18624;DHT22;9441;51.420;7.036;2022-10-18T02:34:55;19.10;99.90
18624;DHT22;9441;51.420;7.036;2022-10-18T02:36:03;19.10;99.90
18624;DHT22;9441;51.420;7.036;2022-10-18T02:37:07;19.10;99.90
18624;DHT22;9441;51.420;7.036;2022-10-18T02:38:13;19.00;99.90
18624;DHT22;9441;51.420;7.036;2022-10-18T02:39:17;19.00;99.90
18624;DHT22;9441;51.420;7.036;2022-10-18T02:40:20;19.00;99.90
18624;DHT22;9441;51.420;7.036;2022-10-18T02:41:23;19.00;99.90
18624;DHT22;9441;51.420;7.036;2022-10-18T02:42:32;19.00;99.90
18624;DHT22;9441;51.420;7.036;2022-10-18T02:43:33;19.00;99.90
18624;DHT22;9441;51.420;7.036;2022-10-18T02:44:37;19.00;99.90
18624;DHT22;9441;51.420;7.036;2022-10-18T02:45:38;18.90;99.90
18624;DHT22;9441;51.420;7.036;2022-10-18T02:46:40;18.90;99.90
18624;DHT22;9441;51.420;7.036;2022-10-18T02:47:43;19.00;99.90
18624;DHT22;9441;51.420;7.036;2022-10-18T02:48:45;19.00;99.90
18624;DHT22;9441;51.420;7.036;2022-10-18T02:49:46;19.00;99.90
18624;DHT22;9441;51.420;7.036;2022-10-18T02:50:48;18.90;99.90
18624;DHT22;9441;51.420;7.036;2022-10-18T02:51:49;18.90;99.90
18624;DHT22;9441;51.420;7.036;2022-10-18T02:52:51;18.90;99.90
18624;DHT22;9441;51.420;7.036;2022-10-18T02:53:53;19.00;99.90
18624;DHT22;9441;51.420;7.036;2022-10-18T02:54:54;19.00;99.90
18624;DHT22;9441;51.420;7.036;2022-10-18T02:55:56;19.00;99.90
18624;DHT22;9441;51.420;7.036;2022-10-18T02:56:57;19.10;99.90
18624;DHT22;9441;51.420;7.036;2022-10-18T02:57:59;19.10;99.90
18624;DHT22;9441;51.420;7.036;2022-10-18T02:59:00;19.10;99.90
18624;DHT22;9441;51.420;7.036;2022-10-18T03:00:04;19.10;99.90
18624;DHT22;9441;51.420;7.036;2022-10-18T03:01:05;19.00;99.90
18624;DHT22;9441;51.420;7.036;2022-10-18T03:02:07;19.00;99.90
18624;DHT22;9441;51.420;7.036;2022-10-18T03:03:09;19.00;99.90
18624;DHT22;9441;51.420;7.036;2022-10-18T03:04:11;19.10;99.90
18624;DHT22;9441;51.420;7.036;2022-10-18T03:05:12;19.00;99.90
18624;DHT22;9441;51.420;7.036;2022-10-18T03:06:14;19.10;99.90
18624;DHT22;9441;51.420;7.036;2022-10-18T03:07:16;19.00;99.90
18624;DHT22;9441;51.420;7.036;2022-10-18T03:08:18;19.00;99.90
18624;DHT22;9441;51.420;7.036;2022-10-18T03:09:19;19.10;99.90
18624;DHT22;9441;51.420;7.036;2022-10-18T03:10:21;19.10;99.90
18624;DHT22;9441;51.420;7.036;2022-10-18T03:11:22;19.10;99.90
18624;DHT22;9441;51.420;7.036;2022-10-18T03:12:24;19.10;99.90
18624;DHT22;9441;51.420;7.036;2022-10-18T03:13:25;19.10;99.90
18624;DHT22;9441;51.420;7.036;2022-10-18T03:14:27;19.10;99.90
18624;DHT22;9441;51.420;7.036;2022-10-18T03:15:28;19.10;99.90
18624;DHT22;9441;51.420;7.036;2022-10-18T03:16:30;19.10;99.90
18624;DHT22;9441;51.420;7.036;2022-10-18T03:17:31;19.10;99.90
18624;DHT22;9441;51.420;7.036;2022-10-18T03:18:35;19.10;99.90
18624;DHT22;9441;51.420;7.036;2022-10-18T03:19:36;19.20;99.90
18624;DHT22;9441;51.420;7.036;2022-10-18T03:20:39;19.20;99.90
18624;DHT22;9441;51.420;7.036;2022-10-18T03:21:40;19.20;99.90
18624;DHT22;9441;51.420;7.036;2022-10-18T03:22:42;19.20;99.90
18624;DHT22;9441;51.420;7.036;2022-10-18T03:23:43;19.20;99.90
18624;DHT22;9441;51.420;7.036;2022-10-18T03:24:45;19.20;99.90
18624;DHT22;9441;51.420;7.036;2022-10-18T03:25:46;19.20;99.90
18624;DHT22;9441;51.420;7.036;2022-10-18T03:26:48;19.20;99.90
18624;DHT22;9441;51.420;7.036;2022-10-18T03:27:49;19.20;99.90
18624;DHT22;9441;51.420;7.036;2022-10-18T03:28:51;19.20;99.90
18624;DHT22;9441;51.420;7.036;2022-10-18T03:29:52;19.20;99.90
18624;DHT22;9441;51.420;7.036;2022-10-18T03:30:58;19.20;99.90
18624;DHT22;9441;51.420;7.036;2022-10-18T03:32:00;19.20;99.90
18624;DHT22;9441;51.420;7.036;2022-10-18T03:33:02;19.20;99.90
18624;DHT22;9441;51.420;7.036;2022-10-18T03:34:04;19.20;99.90
18624;DHT22;9441;51.420;7.036;2022-10-18T03:35:07;19.20;99.90
18624;DHT22;9441;51.420;7.036;2022-10-18T03:36:09;19.30;99.90
18624;DHT22;9441;51.420;7.036;2022-10-18T03:37:11;19.30;99.90
18624;DHT22;9441;51.420;7.036;2022-10-18T03:38:13;19.30;99.90
18624;DHT22;9441;51.420;7.036;2022-10-18T03:39:14;19.30;99.90
18624;DHT22;9441;51.420;7.036;2022-10-18T03:40:16;19.30;99.90
18624;DHT22;9441;51.420;7.036;2022-10-18T03:41:17;19.30;99.90
18624;DHT22;9441;51.420;7.036;2022-10-18T03:42:20;19.30;99.90
18624;DHT22;9441;51.420;7.036;2022-10-18T03:43:21;19.30;99.90
18624;DHT22;9441;51.420;7.036;2022-10-18T03:44:23;19.40;99.90
18624;DHT22;9441;51.420;7.036;2022-10-18T03:45:24;19.40;99.90
18624;DHT22;9441;51.420;7.036;2022-10-18T03:46:26;19.40;99.90
18624;DHT22;9441;51.420;7.036;2022-10-18T03:47:27;19.40;99.90
18624;DHT22;9441;51.420;7.036;2022-10-18T03:48:29;19.40;99.90
18624;DHT22;9441;51.420;7.036;2022-10-18T03:49:33;19.40;99.90
18624;DHT22;9441;51.420;7.036;2022-10-18T03:50:37;19.40;99.90
18624;DHT22;9441;51.420;7.036;2022-10-18T03:51:39;19.40;99.90
18624;DHT22;9441;51.420;7.036;2022-10-18T03:52:40;19.40;99.90
18624;DHT22;9441;51.420;7.036;2022-10-18T03:53:42;19.40;99.90
18624;DHT22;9441;51.420;7.036;2022-10-18T03:54:43;19.40;99.90
18624;DHT22;9441;51.420;7.036;2022-10-18T03:55:49;19.40;99.90
18624;DHT22;9441;51.420;7.036;2022-10-18T03:56:50;19.40;99.90
18624;DHT22;9441;51.420;7.036;2022-10-18T03:57:52;19.40;99.90
18624;DHT22;9441;51.420;7.036;2022-10-18T03:58:56;19.40;99.90
18624;DHT22;9441;51.420;7.036;2022-10-18T03:59:58;19.40;99.90
18624;DHT22;9441;51.420;7.036;2022-10-18T04:01:00;19.40;99.90
18624;DHT22;9441;51.420;7.036;2022-10-18T04:02:03;19.40;99.90
18624;DHT22;9441;51.420;7.036;2022-10-18T04:03:05;19.40;99.90
18624;DHT22;9441;51.420;7.036;2022-10-18T04:04:07;19.40;99.90
18624;DHT22;9441;51.420;7.036;2022-10-18T04:05:10;19.40;99.90
18624;DHT22;9441;51.420;7.036;2022-10-18T04:06:13;19.40;99.90
18624;DHT22;9441;51.420;7.036;2022-10-18T04:07:16;19.40;99.90
18624;DHT22;9441;51.420;7.036;2022-10-18T04:08:19;19.40;99.90
18624;DHT22;9441;51.420;7.036;2022-10-18T04:09:20;19.40;99.90
18624;DHT22;9441;51.420;7.036;2022-10-18T04:10:23;19.40;99.90
18624;DHT22;9441;51.420;7.036;2022-10-18T04:11:30;19.40;99.90
18624;DHT22;9441;51.420;7.036;2022-10-18T04:12:32;19.40;99.90
18624;DHT22;9441;51.420;7.036;2022-10-18T04:13:33;19.30;99.90
18624;DHT22;9441;51.420;7.036;2022-10-18T04:14:35;19.30;99.90
18624;DHT22;9441;51.420;7.036;2022-10-18T04:15:36;19.30;99.90
18624;DHT22;9441;51.420;7.036;2022-10-18T04:16:38;19.30;99.90
18624;DHT22;9441;51.420;7.036;2022-10-18T04:17:41;19.30;99.90
18624;DHT22;9441;51.420;7.036;2022-10-18T04:18:42;19.30;99.90
18624;DHT22;9441;51.420;7.036;2022-10-18T04:19:44;19.30;99.90
18624;DHT22;9441;51.420;7.036;2022-10-18T04:20:46;19.30;99.90
18624;DHT22;9441;51.420;7.036;2022-10-18T04:21:48;19.30;99.90
18624;DHT22;9441;51.420;7.036;2022-10-18T04:22:50;19.40;99.90
18624;DHT22;9441;51.420;7.036;2022-10-18T04:23:52;19.40;99.90
18624;DHT22;9441;51.420;7.036;2022-10-18T04:24:53;19.40;99.90
18624;DHT22;9441;51.420;7.036;2022-10-18T04:25:56;19.40;99.90
18624;DHT22;9441;51.420;7.036;2022-10-18T04:26:57;19.40;99.90
18624;DHT22;9441;51.420;7.036;2022-10-18T04:27:59;19.40;99.90
18624;DHT22;9441;51.420;7.036;2022-10-18T04:29:00;19.40;99.90
18624;DHT22;9441;51.420;7.036;2022-10-18T04:30:03;19.40;99.90
18624;DHT22;9441;51.420;7.036;2022-10-18T04:31:04;19.40;99.90
18624;DHT22;9441;51.420;7.036;2022-10-18T04:32:06;19.40;99.90
18624;DHT22;9441;51.420;7.036;2022-10-18T04:33:07;19.40;99.90
18624;DHT22;9441;51.420;7.036;2022-10-18T04:34:10;19.40;99.90
18624;DHT22;9441;51.420;7.036;2022-10-18T04:35:11;19.40;99.90
18624;DHT22;9441;51.420;7.036;2022-10-18T04:36:14;19.40;99.90
18624;DHT22;9441;51.420;7.036;2022-10-18T04:37:15;19.40;99.90
18624;DHT22;9441;51.420;7.036;2022-10-18T04:38:17;19.40;99.90
18624;DHT22;9441;51.420;7.036;2022-10-18T04:39:18;19.50;99.90
18624;DHT22;9441;51.420;7.036;2022-10-18T04:40:20;19.50;99.90
18624;DHT22;9441;51.420;7.036;2022-10-18T04:41:21;19.50;99.90
18624;DHT22;9441;51.420;7.036;2022-10-18T04:42:24;19.50;99.90
18624;DHT22;9441;51.420;7.036;2022-10-18T04:43:25;19.50;99.90
18624;DHT22;9441;51.420;7.036;2022-10-18T04:44:27;19.50;99.90
18624;DHT22;9441;51.420;7.036;2022-10-18T04:45:28;19.50;99.90
18624;DHT22;9441;51.420;7.036;2022-10-18T04:46:30;19.50;99.90
18624;DHT22;9441;51.420;7.036;2022-10-18T04:47:31;19.50;99.90
18624;DHT22;9441;51.420;7.036;2022-10-18T04:48:33;19.40;99.90
18624;DHT22;9441;51.420;7.036;2022-10-18T04:49:34;19.40;99.90
18624;DHT22;9441;51.420;7.036;2022-10-18T04:50:36;19.50;99.90
18624;DHT22;9441;51.420;7.036;2022-10-18T04:51:49;19.50;99.90
18624;DHT22;9441;51.420;7.036;2022-10-18T04:52:51;19.50;99.90
18624;DHT22;9441;51.420;7.036;2022-10-18T04:53:53;19.50;99.90
18624;DHT22;9441;51.420;7.036;2022-10-18T04:54:55;19.50;99.90
18624;DHT22;9441;51.420;7.036;2022-10-18T04:55:56;19.50;99.90
18624;DHT22;9441;51.420;7.036;2022-10-18T04:56:58;19.50;99.90
18624;DHT22;9441;51.420;7.036;2022-10-18T04:57:59;19.50;99.90
18624;DHT22;9441;51.420;7.036;2022-10-18T04:59:01;19.50;99.90
18624;DHT22;9441;51.420;7.036;2022-10-18T05:00:03;19.50;99.90
18624;DHT22;9441;51.420;7.036;2022-10-18T05:01:05;19.50;99.90
18624;DHT22;9441;51.420;7.036;2022-10-18T05:02:07;19.50;99.90
18624;DHT22;9441;51.420;7.036;2022-10-18T05:03:10;19.50;99.90
18624;DHT22;9441;51.420;7.036;2022-10-18T05:04:12;19.50;99.90
18624;DHT22;9441;51.420;7.036;2022-10-18T05:05:14;19.50;99.90
18624;DHT22;9441;51.420;7.036;2022-10-18T05:06:15;19.50;99.90
18624;DHT22;9441;51.420;7.036;2022-10-18T05:07:19;19.50;99.90
18624;DHT22;9441;51.420;7.036;2022-10-18T05:08:20;19.50;99.90
18624;DHT22;9441;51.420;7.036;2022-10-18T05:09:22;19.50;99.90
18624;DHT22;9441;51.420;7.036;2022-10-18T05:10:24;19.50;99.90
18624;DHT22;9441;51.420;7.036;2022-10-18T05:11:26;19.50;99.90
18624;DHT22;9441;51.420;7.036;2022-10-18T05:12:27;19.50;99.90
18624;DHT22;9441;51.420;7.036;2022-10-18T05:13:29;19.50;99.90
18624;DHT22;9441;51.420;7.036;2022-10-18T05:14:30;19.50;99.90
18624;DHT22;9441;51.420;7.036;2022-10-18T05:15:32;19.50;99.90
18624;DHT22;9441;51.420;7.036;2022-10-18T05:16:33;19.50;99.90
18624;DHT22;9441;51.420;7.036;2022-10-18T05:17:35;19.50;99.90
18624;DHT22;9441;51.420;7.036;2022-10-18T05:18:36;19.60;99.90
18624;DHT22;9441;51.420;7.036;2022-10-18T05:19:38;19.50;99.90
18624;DHT22;9441;51.420;7.036;2022-10-18T05:20:39;19.50;99.90
18624;DHT22;9441;51.420;7.036;2022-10-18T05:21:41;19.50;99.90
18624;DHT22;9441;51.420;7.036;2022-10-18T05:22:44;19.60;99.90
18624;DHT22;9441;51.420;7.036;2022-10-18T05:23:46;19.60;99.90
18624;DHT22;9441;51.420;7.036;2022-10-18T05:24:47;19.60;99.90
18624;DHT22;9441;51.420;7.036;2022-10-18T05:25:49;19.60;99.90
18624;DHT22;9441;51.420;7.036;2022-10-18T05:26:50;19.60;99.90
18624;DHT22;9441;51.420;7.036;2022-10-18T05:27:52;19.60;99.90
18624;DHT22;9441;51.420;7.036;2022-10-18T05:28:53;19.60;99.90
18624;DHT22;9441;51.420;7.036;2022-10-18T05:29:55;19.60;99.90
18624;DHT22;9441;51.420;7.036;2022-10-18T05:30:59;19.60;99.90
18624;DHT22;9441;51.420;7.036;2022-10-18T05:32:02;19.50;99.90
18624;DHT22;9441;51.420;7.036;2022-10-18T05:33:03;19.60;99.90
18624;DHT22;9441;51.420;7.036;2022-10-18T05:34:05;19.50;99.90
18624;DHT22;9441;51.420;7.036;2022-10-18T05:35:08;19.60;99.90
18624;DHT22;9441;51.420;7.036;2022-10-18T05:36:09;19.60;99.90
18624;DHT22;9441;51.420;7.036;2022-10-18T05:37:11;19.60;99.90
18624;DHT22;9441;51.420;7.036;2022-10-18T05:38:14;19.60;99.90
18624;DHT22;9441;51.420;7.036;2022-10-18T05:39:15;19.60;99.90
18624;DHT22;9441;51.420;7.036;2022-10-18T05:40:16;19.60;99.90
18624;DHT22;9441;51.420;7.036;2022-10-18T05:41:19;19.60;99.90
18624;DHT22;9441;51.420;7.036;2022-10-18T05:42:20;19.60;99.90
18624;DHT22;9441;51.420;7.036;2022-10-18T05:43:22;19.60;99.90
18624;DHT22;9441;51.420;7.036;2022-10-18T05:44:23;19.60;99.90
18624;DHT22;9441;51.420;7.036;2022-10-18T05:45:25;19.60;99.90
18624;DHT22;9441;51.420;7.036;2022-10-18T05:46:26;19.60;99.90
18624;DHT22;9441;51.420;7.036;2022-10-18T05:47:28;19.60;99.90
18624;DHT22;9441;51.420;7.036;2022-10-18T05:48:29;19.60;99.90
18624;DHT22;9441;51.420;7.036;2022-10-18T05:49:31;19.60;99.90
18624;DHT22;9441;51.420;7.036;2022-10-18T05:50:32;19.60;99.90
18624;DHT22;9441;51.420;7.036;2022-10-18T05:51:34;19.70;99.90
18624;DHT22;9441;51.420;7.036;2022-10-18T05:52:37;19.70;99.90
18624;DHT22;9441;51.420;7.036;2022-10-18T05:53:40;19.70;99.90
18624;DHT22;9441;51.420;7.036;2022-10-18T05:54:41;19.70;99.90
18624;DHT22;9441;51.420;7.036;2022-10-18T05:55:43;19.70;99.90
18624;DHT22;9441;51.420;7.036;2022-10-18T05:56:44;19.70;99.90
18624;DHT22;9441;51.420;7.036;2022-10-18T05:57:48;19.70;99.90
18624;DHT22;9441;51.420;7.036;2022-10-18T05:58:50;19.70;99.90
18624;DHT22;9441;51.420;7.036;2022-10-18T05:59:52;19.70;99.90
18624;DHT22;9441;51.420;7.036;2022-10-18T06:00:53;19.70;99.90
18624;DHT22;9441;51.420;7.036;2022-10-18T06:01:55;19.70;99.90
18624;DHT22;9441;51.420;7.036;2022-10-18T06:02:56;19.70;99.90
18624;DHT22;9441;51.420;7.036;2022-10-18T06:03:58;19.70;99.90
18624;DHT22;9441;51.420;7.036;2022-10-18T06:04:59;19.70;99.90
18624;DHT22;9441;51.420;7.036;2022-10-18T06:06:02;19.70;99.90
18624;DHT22;9441;51.420;7.036;2022-10-18T06:07:06;19.70;99.90
18624;DHT22;9441;51.420;7.036;2022-10-18T06:08:08;19.70;99.90
18624;DHT22;9441;51.420;7.036;2022-10-18T06:09:11;19.70;99.90
18624;DHT22;9441;51.420;7.036;2022-10-18T06:10:13;19.70;99.90
18624;DHT22;9441;51.420;7.036;2022-10-18T06:11:15;19.70;99.90
18624;DHT22;9441;51.420;7.036;2022-10-18T06:12:17;19.80;99.90
18624;DHT22;9441;51.420;7.036;2022-10-18T06:13:18;19.70;99.90
18624;DHT22;9441;51.420;7.036;2022-10-18T06:14:20;19.80;99.90
18624;DHT22;9441;51.420;7.036;2022-10-18T06:15:22;19.70;99.90
18624;DHT22;9441;51.420;7.036;2022-10-18T06:16:24;19.80;99.90
18624;DHT22;9441;51.420;7.036;2022-10-18T06:17:26;19.70;99.90
18624;DHT22;9441;51.420;7.036;2022-10-18T06:18:28;19.70;99.90
18624;DHT22;9441;51.420;7.036;2022-10-18T06:19:29;19.70;99.90
18624;DHT22;9441;51.420;7.036;2022-10-18T06:20:31;19.70;99.90
18624;DHT22;9441;51.420;7.036;2022-10-18T06:21:32;19.70;99.90
18624;DHT22;9441;51.420;7.036;2022-10-18T06:22:34;19.70;99.90
18624;DHT22;9441;51.420;7.036;2022-10-18T06:23:35;19.80;99.90
18624;DHT22;9441;51.420;7.036;2022-10-18T06:24:38;19.80;99.90
18624;DHT22;9441;51.420;7.036;2022-10-18T06:25:39;19.80;99.90
18624;DHT22;9441;51.420;7.036;2022-10-18T06:26:41;19.80;99.90
18624;DHT22;9441;51.420;7.036;2022-10-18T06:27:44;19.80;99.90
18624;DHT22;9441;51.420;7.036;2022-10-18T06:28:45;19.80;99.90
18624;DHT22;9441;51.420;7.036;2022-10-18T06:29:47;19.80;99.90
18624;DHT22;9441;51.420;7.036;2022-10-18T06:30:48;19.80;99.90
18624;DHT22;9441;51.420;7.036;2022-10-18T06:31:50;19.80;99.90
18624;DHT22;9441;51.420;7.036;2022-10-18T06:32:50;19.80;99.90
18624;DHT22;9441;51.420;7.036;2022-10-18T06:33:54;19.80;99.90
18624;DHT22;9441;51.420;7.036;2022-10-18T06:34:56;19.80;99.90
18624;DHT22;9441;51.420;7.036;2022-10-18T06:35:59;19.80;99.90
18624;DHT22;9441;51.420;7.036;2022-10-18T06:37:01;19.80;99.90
18624;DHT22;9441;51.420;7.036;2022-10-18T06:38:03;19.80;99.90
18624;DHT22;9441;51.420;7.036;2022-10-18T06:39:04;19.80;99.90
18624;DHT22;9441;51.420;7.036;2022-10-18T06:40:08;19.80;99.90
18624;DHT22;9441;51.420;7.036;2022-10-18T06:41:10;19.70;99.90
18624;DHT22;9441;51.420;7.036;2022-10-18T06:42:12;19.80;99.90
18624;DHT22;9441;51.420;7.036;2022-10-18T06:43:13;19.80;99.90
18624;DHT22;9441;51.420;7.036;2022-10-18T06:44:15;19.80;99.90
18624;DHT22;9441;51.420;7.036;2022-10-18T06:45:17;19.90;99.90
18624;DHT22;9441;51.420;7.036;2022-10-18T06:46:18;19.80;99.90
18624;DHT22;9441;51.420;7.036;2022-10-18T06:47:20;19.80;99.90
18624;DHT22;9441;51.420;7.036;2022-10-18T06:48:22;19.90;99.90
18624;DHT22;9441;51.420;7.036;2022-10-18T06:49:24;19.90;99.90
18624;DHT22;9441;51.420;7.036;2022-10-18T06:50:25;19.90;99.90